createdAt,value
2022-09-22T00:00:13.067Z,96270.00
2022-09-22T00:04:17.117Z,96269.00
2022-09-22T00:08:19.854Z,96271.00
2022-09-22T00:12:22.950Z,96273.00
2022-09-22T00:16:27.819Z,96263.00
2022-09-22T00:20:31.872Z,96270.00
2022-09-22T00:24:35.146Z,96258.00
2022-09-22T00:28:39.102Z,96258.00
2022-09-22T00:32:41.810Z,96252.00
2022-09-22T00:36:46.222Z,96246.00
2022-09-22T00:40:49.172Z,96243.00
2022-09-22T00:44:51.862Z,96234.00
2022-09-22T00:48:58.102Z,96227.00
2022-09-22T00:53:07.079Z,96223.00
2022-09-22T00:57:13.122Z,96219.00
2022-09-22T01:01:16.126Z,96219.00
2022-09-22T01:05:19.657Z,96208.00
2022-09-22T01:09:24.671Z,96199.00
2022-09-22T01:13:32.720Z,96184.00
2022-09-22T01:17:45.110Z,96194.00
2022-09-22T01:22:03.671Z,96190.00
2022-09-22T01:26:35.570Z,96177.00
2022-09-22T01:30:43.457Z,96182.00
2022-09-22T01:34:51.828Z,96180.00
2022-09-22T01:39:02.490Z,96178.00
2022-09-22T01:43:13.194Z,96163.00
2022-09-22T01:47:20.420Z,96176.00
2022-09-22T01:51:28.252Z,96171.00
2022-09-22T01:55:33.616Z,96170.00
2022-09-22T01:59:40.151Z,96170.00
2022-09-22T02:03:47.369Z,96171.00
2022-09-22T02:07:53.844Z,96177.00
2022-09-22T02:11:56.581Z,96171.00
2022-09-22T02:16:02.037Z,96180.00
2022-09-22T02:20:07.721Z,96175.00
2022-09-22T02:24:28.747Z,96176.00
2022-09-22T02:28:34.047Z,96172.00
2022-09-22T02:32:39.403Z,96170.00
2022-09-22T02:36:53.567Z,96168.00
2022-09-22T02:41:02.406Z,96172.00
2022-09-22T02:45:11.522Z,96169.00
2022-09-22T02:49:17.850Z,96166.00
2022-09-22T02:53:21.921Z,96172.00
2022-09-22T02:57:24.672Z,96177.00
2022-09-22T03:01:27.632Z,96170.00
2022-09-22T03:05:30.361Z,96187.00
2022-09-22T03:09:34.543Z,96174.00
2022-09-22T03:13:37.206Z,96184.00
2022-09-22T03:17:41.501Z,96168.00
2022-09-22T03:21:44.205Z,96167.00
2022-09-22T03:25:48.265Z,96153.00
2022-09-22T03:29:50.964Z,96155.00
2022-09-22T03:33:53.646Z,96158.00
2022-09-22T03:37:56.328Z,96164.00
2022-09-22T03:42:00.351Z,96152.00
2022-09-22T03:46:03.937Z,96162.00
2022-09-22T03:50:07.647Z,96164.00
2022-09-22T03:54:10.410Z,96164.00
2022-09-22T03:58:14.974Z,96154.00
2022-09-22T04:02:18.393Z,96159.00
2022-09-22T04:06:21.290Z,96149.00
2022-09-22T04:10:24.007Z,96156.00
2022-09-22T04:14:28.247Z,96155.00
2022-09-22T04:18:30.958Z,96151.00
2022-09-22T04:22:33.701Z,96152.00
2022-09-22T04:26:36.373Z,96148.00
2022-09-22T04:30:40.596Z,96138.00
2022-09-22T04:34:43.921Z,96154.00
2022-09-22T04:38:46.613Z,96151.00
2022-09-22T04:42:49.405Z,96159.00
2022-09-22T04:46:53.451Z,96162.00
2022-09-22T04:50:56.139Z,96172.00
2022-09-22T04:54:59.162Z,96182.00
2022-09-22T04:59:02.075Z,96179.00
2022-09-22T05:03:09.924Z,96179.00
2022-09-22T05:07:12.691Z,96166.00
2022-09-22T05:11:15.430Z,96184.00
2022-09-22T05:15:18.309Z,96181.00
2022-09-22T05:19:22.360Z,96179.00
2022-09-22T05:23:25.098Z,96189.00
2022-09-22T05:27:27.758Z,96178.00
2022-09-22T05:31:30.550Z,96189.00
2022-09-22T05:35:37.090Z,96180.00
2022-09-22T05:39:40.008Z,96189.00
2022-09-22T05:43:42.741Z,96190.00
2022-09-22T05:47:45.712Z,96197.00
2022-09-22T05:51:52.118Z,96199.00
2022-09-22T05:55:56.818Z,96192.00
2022-09-22T05:59:59.882Z,96199.00
2022-09-22T06:04:03.002Z,96188.00
2022-09-22T06:08:07.756Z,96189.00
2022-09-22T06:12:10.446Z,96201.00
2022-09-22T06:16:13.168Z,96201.00
2022-09-22T06:20:16.029Z,96193.00
2022-09-22T06:24:20.095Z,96203.00
2022-09-22T06:28:23.154Z,96204.00
2022-09-22T06:32:25.805Z,96207.00
2022-09-22T06:36:31.485Z,96201.00
2022-09-22T06:40:36.501Z,96215.00
2022-09-22T06:44:40.026Z,96208.00
2022-09-22T06:48:43.326Z,96205.00
2022-09-22T06:52:46.111Z,96197.00
2022-09-22T06:56:50.176Z,96195.00
2022-09-22T07:00:53.629Z,96194.00
2022-09-22T07:04:58.883Z,96191.00
2022-09-22T07:09:01.818Z,96185.00
2022-09-22T07:13:06.341Z,96195.00
2022-09-22T07:17:09.062Z,96181.00
2022-09-22T07:21:13.597Z,96185.00
2022-09-22T07:25:16.410Z,96185.00
2022-09-22T07:29:20.519Z,96185.00
2022-09-22T07:33:24.022Z,96185.00
2022-09-22T07:37:29.992Z,96191.00
2022-09-22T07:41:41.275Z,96190.00
2022-09-22T07:45:54.275Z,96191.00
2022-09-22T07:49:56.959Z,96187.00
2022-09-22T07:54:07.333Z,96198.00
2022-09-22T07:58:12.877Z,96201.00
2022-09-22T08:02:25.470Z,96191.00
2022-09-22T08:06:29.023Z,96216.00
2022-09-22T08:10:33.838Z,96199.00
2022-09-22T08:14:36.582Z,96206.00
2022-09-22T08:18:40.981Z,96209.00
2022-09-22T08:22:44.174Z,96208.00
2022-09-22T08:26:48.381Z,96208.00
2022-09-22T08:30:51.339Z,96208.00
2022-09-22T08:34:57.996Z,96209.00
2022-09-22T08:39:00.900Z,96205.00
2022-09-22T08:43:04.261Z,96209.00
2022-09-22T08:47:07.175Z,96208.00
2022-09-22T08:51:31.856Z,96197.00
2022-09-22T08:55:34.699Z,96209.00
2022-09-22T08:59:44.780Z,96210.00
2022-09-22T09:03:57.619Z,96213.00
2022-09-22T09:08:11.131Z,96212.00
2022-09-22T09:12:37.441Z,96207.00
2022-09-22T09:16:46.311Z,96216.00
2022-09-22T09:20:52.043Z,96205.00
2022-09-22T09:29:30.814Z,96206.00
2022-09-22T09:33:42.957Z,96211.00
2022-09-22T09:37:46.058Z,96205.00
2022-09-22T09:41:50.874Z,96203.00
2022-09-22T09:46:07.936Z,96206.00
2022-09-22T09:50:12.246Z,96209.00
2022-09-22T09:54:17.607Z,96211.00
2022-09-22T09:58:35.887Z,96199.00
2022-09-22T10:02:48.178Z,96198.00
2022-09-22T10:06:50.935Z,96203.00
2022-09-22T10:10:58.991Z,96202.00
2022-09-22T10:15:03.066Z,96204.00
2022-09-22T10:19:23.094Z,96198.00
2022-09-22T10:23:28.754Z,96198.00
2022-09-22T10:27:32.797Z,96194.00
2022-09-22T10:31:38.511Z,96193.00
2022-09-22T10:35:42.410Z,96199.00
2022-09-22T10:39:48.013Z,96195.00
2022-09-22T10:43:54.272Z,96202.00
2022-09-22T10:48:00.274Z,96205.00
2022-09-22T10:52:13.619Z,96198.00
2022-09-22T10:56:26.799Z,96197.00
2022-09-22T11:00:30.233Z,96200.00
2022-09-22T11:04:45.357Z,96202.00
2022-09-22T11:09:13.750Z,96195.00
2022-09-22T11:13:29.880Z,96205.00
2022-09-22T11:17:54.851Z,96198.00
2022-09-22T11:22:19.037Z,96191.00
2022-09-22T11:26:35.931Z,96192.00
2022-09-22T11:30:45.209Z,96189.00
2022-09-22T11:35:13.078Z,96186.00
2022-09-22T11:39:22.315Z,96181.00
2022-09-22T11:43:36.850Z,96186.00
2022-09-22T11:47:51.390Z,96186.00
2022-09-22T11:52:06.641Z,96167.00
2022-09-22T11:56:38.215Z,96181.00
2022-09-22T12:00:48.147Z,96175.00
2022-09-22T12:04:56.373Z,96173.00
2022-09-22T12:09:03.350Z,96157.00
2022-09-22T12:13:11.911Z,96159.00
2022-09-22T12:17:23.776Z,96160.00
2022-09-22T12:21:43.156Z,96163.00
2022-09-22T12:25:49.010Z,96160.00
2022-09-22T12:29:59.185Z,96156.00
2022-09-22T12:34:03.054Z,96152.00
2022-09-22T12:38:05.794Z,96154.00
2022-09-22T12:42:19.774Z,96151.00
2022-09-22T12:46:29.845Z,96139.00
2022-09-22T12:50:37.745Z,96149.00
2022-09-22T12:54:40.430Z,96141.00
2022-09-22T12:58:43.927Z,96143.00
2022-09-22T13:02:49.775Z,96143.00
2022-09-22T13:07:00.080Z,96135.00
2022-09-22T13:11:04.333Z,96138.00
2022-09-22T13:15:25.045Z,96138.00
2022-09-22T13:19:29.131Z,96130.00
2022-09-22T13:23:31.818Z,96142.00
2022-09-22T13:27:34.490Z,96146.00
2022-09-22T13:31:39.314Z,96139.00
2022-09-22T13:35:45.517Z,96139.00
2022-09-22T13:39:51.454Z,96135.00
2022-09-22T13:43:57.475Z,96131.00
2022-09-22T13:48:08.458Z,96134.00
2022-09-22T13:52:17.730Z,96134.00
2022-09-22T13:56:23.444Z,96124.00
2022-09-22T14:00:28.944Z,96116.00
2022-09-22T14:04:31.937Z,96111.00
2022-09-22T14:08:37.369Z,96124.00
2022-09-22T14:12:40.287Z,96110.00
2022-09-22T14:16:49.322Z,96111.00
2022-09-22T14:20:53.803Z,96109.00
2022-09-22T14:25:00.242Z,96111.00
2022-09-22T14:29:15.468Z,96102.00
2022-09-22T14:33:23.347Z,96098.00
2022-09-22T14:37:30.832Z,96092.00
2022-09-22T14:41:37.815Z,96088.00
2022-09-22T14:45:57.748Z,96089.00
2022-09-22T14:50:08.637Z,96091.00
2022-09-22T14:54:18.731Z,96086.00
2022-09-22T14:58:27.275Z,96084.00
2022-09-22T15:02:32.077Z,96079.00
2022-09-22T15:06:39.654Z,96066.00
2022-09-22T15:10:42.395Z,96087.00
2022-09-22T15:14:47.086Z,96084.00
2022-09-22T15:18:50.182Z,96083.00
2022-09-22T15:22:54.562Z,96075.00
2022-09-22T15:27:00.042Z,96075.00
2022-09-22T15:31:05.833Z,96071.00
2022-09-22T15:35:09.412Z,96070.00
2022-09-22T15:39:19.978Z,96075.00
2022-09-22T15:43:24.715Z,96079.00
2022-09-22T15:47:29.674Z,96063.00
2022-09-22T15:51:33.357Z,96080.00
2022-09-22T15:55:36.053Z,96067.00
2022-09-22T15:59:38.822Z,96072.00
2022-09-22T16:03:42.870Z,96078.00
2022-09-22T16:07:51.152Z,96074.00
2022-09-22T16:11:54.866Z,96078.00
2022-09-22T16:15:57.563Z,96083.00
2022-09-22T16:20:02.058Z,96079.00
2022-09-22T16:24:08.189Z,96073.00
2022-09-22T16:28:11.446Z,96079.00
2022-09-22T16:32:14.143Z,96074.00
2022-09-22T16:36:18.199Z,96078.00
2022-09-22T16:40:22.383Z,96074.00
2022-09-22T16:44:25.122Z,96072.00
2022-09-22T16:48:27.792Z,96078.00
2022-09-22T16:52:32.208Z,96073.00
2022-09-22T16:56:37.686Z,96067.00
2022-09-22T17:00:40.402Z,96068.00
2022-09-22T17:04:44.057Z,96073.00
2022-09-22T17:08:48.062Z,96073.00
2022-09-22T17:12:51.519Z,96059.00
2022-09-22T17:16:56.541Z,96069.00
2022-09-22T17:20:59.243Z,96072.00
2022-09-22T17:25:03.315Z,96071.00
2022-09-22T17:29:07.106Z,96065.00
2022-09-22T17:33:09.810Z,96068.00
2022-09-22T17:37:14.071Z,96072.00
2022-09-22T17:41:19.698Z,96068.00
2022-09-22T17:45:22.449Z,96068.00
2022-09-22T17:49:42.562Z,96072.00
2022-09-22T17:54:02.974Z,96078.00
2022-09-22T17:58:09.869Z,96078.00
2022-09-22T18:02:14.283Z,96076.00
2022-09-22T18:06:19.078Z,96074.00
2022-09-22T18:10:22.020Z,96082.00
2022-09-22T18:14:26.269Z,96075.00
2022-09-22T18:18:28.982Z,96071.00
2022-09-22T18:22:31.677Z,96078.00
2022-09-22T18:26:38.136Z,96070.00
2022-09-22T18:30:42.251Z,96080.00
2022-09-22T18:34:44.913Z,96089.00
2022-09-22T18:38:47.590Z,96085.00
2022-09-22T18:42:50.287Z,96086.00
2022-09-22T18:46:54.464Z,96079.00
2022-09-22T18:50:57.243Z,96086.00
2022-09-22T18:55:00.367Z,96088.00
2022-09-22T18:59:04.491Z,96090.00
2022-09-22T19:03:08.518Z,96088.00
2022-09-22T19:07:28.838Z,96087.00
2022-09-22T19:11:34.926Z,96083.00
2022-09-22T19:15:39.973Z,96100.00
2022-09-22T19:19:49.714Z,96089.00
2022-09-22T19:23:52.383Z,96094.00
2022-09-22T19:27:55.111Z,96093.00
2022-09-22T19:31:58.540Z,96086.00
2022-09-22T19:36:02.754Z,96080.00
2022-09-22T19:40:08.331Z,96074.00
2022-09-22T19:44:11.043Z,96078.00
2022-09-22T19:48:14.295Z,96070.00
2022-09-22T19:52:18.529Z,96067.00
2022-09-22T19:56:21.247Z,96063.00
2022-09-22T20:00:26.670Z,96066.00
2022-09-22T20:04:33.877Z,96067.00
2022-09-22T20:08:38.546Z,96060.00
2022-09-22T20:12:41.262Z,96057.00
2022-09-22T20:16:46.551Z,96062.00
2022-09-22T20:20:51.241Z,96057.00
2022-09-22T20:24:57.330Z,96060.00
2022-09-22T20:29:00.231Z,96059.00
2022-09-22T20:33:02.915Z,96046.00
2022-09-22T20:37:05.676Z,96044.00
2022-09-22T20:41:16.862Z,96040.00
2022-09-22T20:45:22.792Z,96033.00
2022-09-22T20:49:25.993Z,96041.00
2022-09-22T20:53:28.963Z,96035.00
2022-09-22T20:57:33.012Z,96042.00
2022-09-22T21:01:35.948Z,96041.00
2022-09-22T21:05:38.638Z,96037.00
2022-09-22T21:09:58.752Z,96034.00
2022-09-22T21:14:05.464Z,96029.00
2022-09-22T21:18:08.183Z,96022.00
2022-09-22T21:22:10.855Z,96025.00
2022-09-22T21:26:15.891Z,96015.00
2022-09-22T21:30:19.966Z,96011.00
2022-09-22T21:34:23.295Z,96013.00
2022-09-22T21:38:26.029Z,96011.00
2022-09-22T21:42:28.702Z,96009.00
2022-09-22T21:46:34.657Z,96007.00
2022-09-22T21:50:37.527Z,96000.00
2022-09-22T21:54:40.737Z,96000.00
2022-09-22T21:58:45.524Z,95995.00
2022-09-22T22:03:06.809Z,95995.00
2022-09-22T22:07:09.465Z,95984.00
2022-09-22T22:11:14.243Z,95981.00
2022-09-22T22:15:17.091Z,95980.00
2022-09-22T22:19:24.749Z,95982.00
2022-09-22T22:23:28.787Z,95983.00
2022-09-22T22:27:31.498Z,95990.00
2022-09-22T22:31:35.165Z,95981.00
2022-09-22T22:35:39.177Z,95987.00
2022-09-22T22:39:41.855Z,95977.00
2022-09-22T22:43:45.281Z,95979.00
2022-09-22T22:47:48.040Z,95977.00
2022-09-22T22:51:52.414Z,95979.00
2022-09-22T22:55:57.292Z,95973.00
2022-09-22T22:59:59.998Z,95972.00
2022-09-22T23:04:04.473Z,95961.00
2022-09-22T23:08:09.105Z,95952.00
2022-09-22T23:12:12.225Z,95959.00
2022-09-22T23:16:17.068Z,95958.00
2022-09-22T23:20:20.274Z,95962.00
2022-09-22T23:24:24.295Z,95944.00
2022-09-22T23:28:27.449Z,95948.00
2022-09-22T23:32:30.150Z,95946.00
2022-09-22T23:36:32.859Z,95949.00
2022-09-22T23:40:37.249Z,95944.00
2022-09-22T23:44:40.038Z,95941.00
2022-09-22T23:48:42.795Z,95948.00
2022-09-22T23:52:46.326Z,95946.00
2022-09-22T23:56:50.355Z,95938.00
